This is the latest recevied weather packets stored in our database for station/object K42C. If no packets are shown the sender has not sent any weather packets the latest 10 day(s).
| Time | Temp. | Humidity | Pressure | Rain* | Wind** | Luminosity | Snow |
|---|---|---|---|---|---|---|---|
| 1777950765 | 15.56° C | 73% | 962.2 hPa | 0 mm | 2.24 m/s, 218° | - | - |
| 1777950364 | 16.11° C | 73% | 961.8 hPa | 0 mm | 4.02 m/s, 255° | - | - |
| 1777949967 | 16.11° C | 72% | 961.6 hPa | 0.51 mm | 0.89 m/s, 198° | - | - |
| 1777949566 | 16.67° C | 71% | 961.7 hPa | 0.51 mm | 3.13 m/s, 186° | - | - |
| 1777949169 | 17.22° C | 70% | 961.7 hPa | 0.51 mm | 2.68 m/s, 190° | - | - |
| 1777948768 | 17.22° C | 70% | 961.6 hPa | 0.51 mm | 3.58 m/s, 257° | - | - |
| 1777948370 | 17.78° C | 70% | 961.6 hPa | 0.51 mm | 2.24 m/s, 224° | - | - |
| 1777947969 | 17.22° C | 70% | 961.4 hPa | 0.51 mm | 1.79 m/s, 198° | - | - |
| 1777947572 | 17.22° C | 72% | 961.1 hPa | 0.51 mm | 0.89 m/s, 205° | - | - |
| 1777946373 | 16.67° C | 71% | 960.9 hPa | 0 mm | 0 m/s | - | - |
| 1777945975 | 17.22° C | 68% | 960.6 hPa | 0 mm | 0 m/s | - | - |
| 1777945574 | 17.78° C | 67% | 960.1 hPa | 0 mm | 0 m/s | - | - |
| 1777945177 | 17.78° C | 67% | 960.3 hPa | 0 mm | 0.89 m/s, 232° | - | - |
| 1777944776 | 18.33° C | 65% | 960.1 hPa | 0 mm | 0 m/s | - | - |
| 1777944378 | 20° C | 54% | 959.7 hPa | 0 mm | 0 m/s | - | - |
| 1777943977 | 20.56° C | 44% | 960.3 hPa | 0 mm | 0 m/s | - | - |
| 1777943580 | 21.11° C | 44% | 960 hPa | 0 mm | 0 m/s | - | - |
| 1777943179 | 21.11° C | 43% | 959.5 hPa | 0 mm | 0 m/s | - | - |
| 1777942782 | 21.11° C | 43% | 959.1 hPa | 0 mm | 2.68 m/s, 186° | - | - |
| 1777942381 | 21.11° C | 42% | 959.1 hPa | 0 mm | 2.68 m/s, 225° | - | - |
| 1777941983 | 21.11° C | 42% | 958.9 hPa | 0 mm | 2.24 m/s, 174° | - | - |
| 1777941582 | 21.67° C | 42% | 958.8 hPa | 0 mm | 1.34 m/s, 221° | - | - |
| 1777941185 | 21.67° C | 41% | 958.7 hPa | 0 mm | 3.13 m/s, 188° | - | - |
| 1777940784 | 21.67° C | 41% | 958.5 hPa | 0 mm | 1.79 m/s, 187° | - | - |
| 1777940386 | 21.67° C | 41% | 958.5 hPa | 0 mm | 2.68 m/s, 224° | - | - |
* Rain latest hour (hover to see other rain measurements)
** Current wind speed in m/s (hover to see current wind gust speed)